createdAt,value
2022-11-16T00:01:56.671Z,97086.09
2022-11-16T00:04:24.633Z,97078.72
2022-11-16T00:06:52.426Z,97083.98
2022-11-16T00:09:22.965Z,97080.72
2022-11-16T00:11:56.543Z,97080.14
2022-11-16T00:14:30.258Z,97079.38
2022-11-16T00:16:58.978Z,97074.36
2022-11-16T00:19:27.645Z,97072.44
2022-11-16T00:21:59.120Z,97063.05
2022-11-16T00:24:26.648Z,97055.25
2022-11-16T00:26:55.691Z,97051.72
2022-11-16T00:29:26.277Z,97044.28
2022-11-16T00:31:54.286Z,97053.91
2022-11-16T00:34:23.627Z,97052.05
2022-11-16T00:36:51.529Z,97052.91
2022-11-16T00:39:20.336Z,97056.14
2022-11-16T00:41:49.173Z,97058.85
2022-11-16T00:44:18.408Z,97051.94
2022-11-16T00:46:46.354Z,97057.30
2022-11-16T00:49:14.552Z,97056.30
2022-11-16T00:51:42.361Z,97051.00
2022-11-16T00:54:10.319Z,97046.70
2022-11-16T00:56:39.764Z,97036.28
2022-11-16T00:59:07.723Z,97028.80
2022-11-16T01:01:35.590Z,97029.34
2022-11-16T01:04:03.666Z,97031.23
2022-11-16T01:06:31.399Z,97025.36
2022-11-16T01:09:01.206Z,97013.05
2022-11-16T01:11:47.516Z,97006.59
2022-11-16T01:14:15.616Z,97010.61
2022-11-16T01:16:44.470Z,97015.97
2022-11-16T01:19:12.064Z,97010.61
2022-11-16T01:21:39.889Z,97002.54
2022-11-16T01:24:07.557Z,96997.87
2022-11-16T01:26:35.140Z,96998.05
2022-11-16T01:29:03.182Z,97002.22
2022-11-16T01:31:32.647Z,96991.66
2022-11-16T01:34:01.722Z,96995.34
2022-11-16T01:36:30.150Z,96997.02
2022-11-16T01:38:59.791Z,96976.05
2022-11-16T01:41:29.688Z,96976.47
2022-11-16T01:44:04.584Z,96976.88
2022-11-16T01:46:33.804Z,96978.45
2022-11-16T01:49:18.893Z,96982.72
2022-11-16T01:51:54.168Z,96976.08
2022-11-16T01:54:29.715Z,96976.56
2022-11-16T01:57:05.483Z,96985.16
2022-11-16T01:59:34.820Z,96974.54
2022-11-16T02:02:03.382Z,96981.83
2022-11-16T02:04:31.788Z,96983.00
2022-11-16T02:07:17.541Z,96988.47
2022-11-16T02:10:13.115Z,96985.03
2022-11-16T02:12:58.695Z,96986.98
2022-11-16T02:15:44.877Z,96980.36
2022-11-16T02:18:39.072Z,96976.09
2022-11-16T02:21:40.872Z,96974.75
2022-11-16T02:24:43.479Z,96966.22
2022-11-16T02:27:34.741Z,96953.16
2022-11-16T02:30:04.913Z,96934.98
2022-11-16T02:32:49.704Z,96932.55
2022-11-16T02:35:25.179Z,96930.97
2022-11-16T02:38:07.978Z,96936.09
2022-11-16T02:40:39.887Z,96925.19
2022-11-16T02:43:11.130Z,96913.99
2022-11-16T02:45:43.784Z,96909.45
2022-11-16T02:48:16.912Z,96910.05
2022-11-16T02:50:47.384Z,96913.38
2022-11-16T02:53:15.330Z,96914.26
2022-11-16T02:55:44.531Z,96904.98
2022-11-16T02:58:15.687Z,96904.70
2022-11-16T03:01:07.249Z,96896.64
2022-11-16T03:03:42.711Z,96891.25
2022-11-16T03:06:24.532Z,96883.34
2022-11-16T03:09:03.859Z,96875.41
2022-11-16T03:11:54.123Z,96869.33
2022-11-16T03:14:30.689Z,96866.14
2022-11-16T03:17:00.331Z,96845.78
2022-11-16T03:19:45.293Z,96833.75
2022-11-16T03:22:18.970Z,96836.31
2022-11-16T03:24:47.246Z,96849.12
2022-11-16T03:27:26.584Z,96843.77
2022-11-16T03:30:04.421Z,96865.22
2022-11-16T03:32:46.493Z,96874.17
2022-11-16T03:35:30.520Z,96865.49
2022-11-16T03:38:01.787Z,96856.98
2022-11-16T03:40:33.647Z,96864.89
2022-11-16T03:43:04.160Z,96858.03
2022-11-16T03:45:32.148Z,96853.53
2022-11-16T03:48:00.526Z,96858.89
2022-11-16T03:50:28.120Z,96861.61
2022-11-16T03:52:55.667Z,96866.23
2022-11-16T03:55:24.186Z,96867.34
2022-11-16T03:57:51.882Z,96859.78
2022-11-16T04:00:19.762Z,96864.14
2022-11-16T04:02:47.531Z,96854.05
2022-11-16T04:05:35.542Z,96840.72
2022-11-16T04:08:21.555Z,96828.40
2022-11-16T04:11:08.415Z,96826.06
2022-11-16T04:13:54.795Z,96826.23
2022-11-16T04:16:41.234Z,96831.75
2022-11-16T04:19:28.168Z,96844.77
2022-11-16T04:22:31.686Z,96839.23
2022-11-16T04:25:11.015Z,96823.52
2022-11-16T04:27:57.186Z,96812.60
2022-11-16T04:30:35.322Z,96811.53
2022-11-16T04:33:21.516Z,96815.25
2022-11-16T04:36:09.549Z,96810.44
2022-11-16T04:38:36.922Z,96807.46
2022-11-16T04:41:04.675Z,96800.16
2022-11-16T04:43:32.255Z,96791.48
2022-11-16T04:46:18.422Z,96792.11
2022-11-16T04:48:46.116Z,96782.84
2022-11-16T04:51:13.582Z,96780.50
2022-11-16T04:53:41.196Z,96783.79
2022-11-16T04:56:11.973Z,96785.27
2022-11-16T04:58:39.814Z,96786.84
2022-11-16T05:01:08.549Z,96801.58
2022-11-16T05:03:36.884Z,96787.70
2022-11-16T05:06:06.289Z,96786.60
2022-11-16T05:08:34.629Z,96784.16
2022-11-16T05:11:03.987Z,96771.28
2022-11-16T05:13:31.817Z,96765.06
2022-11-16T05:15:59.381Z,96763.13
2022-11-16T05:18:27.085Z,96761.59
2022-11-16T05:21:01.088Z,96759.77
2022-11-16T05:23:48.901Z,96765.41
2022-11-16T05:26:18.205Z,96772.45
2022-11-16T05:28:46.494Z,96778.03
2022-11-16T05:31:14.413Z,96776.63
2022-11-16T05:33:42.067Z,96775.73
2022-11-16T05:36:10.393Z,96773.95
2022-11-16T05:38:37.917Z,96769.97
2022-11-16T05:41:06.439Z,96767.05
2022-11-16T05:43:34.221Z,96768.39
2022-11-16T05:46:03.648Z,96772.64
2022-11-16T05:48:31.695Z,96768.35
2022-11-16T05:51:00.488Z,96767.19
2022-11-16T05:53:29.730Z,96765.02
2022-11-16T05:55:58.045Z,96758.30
2022-11-16T05:58:25.560Z,96756.89
2022-11-16T06:00:53.929Z,96752.05
2022-11-16T06:03:22.387Z,96739.69
2022-11-16T06:05:52.186Z,96732.09
2022-11-16T06:08:19.930Z,96732.30
2022-11-16T06:10:49.218Z,96735.92
2022-11-16T06:13:17.154Z,96752.88
2022-11-16T06:15:52.157Z,96761.05
2022-11-16T06:18:20.474Z,96766.91
2022-11-16T06:20:49.217Z,96756.16
2022-11-16T06:23:17.716Z,96751.12
2022-11-16T06:25:45.399Z,96752.19
2022-11-16T06:28:13.250Z,96749.73
2022-11-16T06:30:41.002Z,96745.98
2022-11-16T06:33:09.386Z,96750.81
2022-11-16T06:35:37.507Z,96758.12
2022-11-16T06:38:05.498Z,96759.53
2022-11-16T06:40:33.466Z,96757.33
2022-11-16T06:43:02.049Z,96757.52
2022-11-16T06:45:29.701Z,96760.15
2022-11-16T06:47:58.135Z,96754.70
2022-11-16T06:50:25.665Z,96750.68
2022-11-16T06:52:53.561Z,96743.18
2022-11-16T06:55:21.716Z,96741.84
2022-11-16T06:57:49.281Z,96749.89
2022-11-16T07:00:18.199Z,96754.15
2022-11-16T07:02:46.376Z,96748.31
2022-11-16T07:05:15.882Z,96755.38
2022-11-16T07:07:43.476Z,96752.52
2022-11-16T07:10:11.569Z,96747.52
2022-11-16T07:12:39.270Z,96743.38
2022-11-16T07:15:08.278Z,96746.23
2022-11-16T07:17:36.907Z,96747.55
2022-11-16T07:20:05.966Z,96741.89
2022-11-16T07:22:33.994Z,96733.38
2022-11-16T07:25:01.827Z,96731.33
2022-11-16T07:27:29.453Z,96730.03
2022-11-16T07:29:57.101Z,96727.55
2022-11-16T07:32:26.757Z,96718.78
2022-11-16T07:34:59.547Z,96725.50
2022-11-16T07:37:28.072Z,96725.25
2022-11-16T07:39:55.794Z,96720.73
2022-11-16T07:42:23.700Z,96727.82
2022-11-16T07:44:53.343Z,96720.14
2022-11-16T07:47:20.729Z,96712.09
2022-11-16T07:49:48.782Z,96708.03
2022-11-16T07:52:18.384Z,96719.25
2022-11-16T07:55:01.099Z,96705.31
2022-11-16T07:57:29.127Z,96707.42
2022-11-16T07:59:58.512Z,96700.42
2022-11-16T08:02:26.742Z,96702.22
2022-11-16T08:04:54.647Z,96699.06
2022-11-16T08:07:24.330Z,96692.20
2022-11-16T08:09:53.943Z,96690.44
2022-11-16T08:12:22.279Z,96686.02
2022-11-16T08:14:50.391Z,96683.96
2022-11-16T08:17:18.346Z,96681.38
2022-11-16T08:19:45.739Z,96685.75
2022-11-16T08:22:15.365Z,96679.98
2022-11-16T08:24:42.995Z,96688.67
2022-11-16T08:27:10.626Z,96679.89
2022-11-16T08:29:38.341Z,96677.75
2022-11-16T08:32:07.335Z,96683.45
2022-11-16T08:34:35.361Z,96684.41
2022-11-16T08:37:04.411Z,96679.26
2022-11-16T08:39:40.073Z,96675.48
2022-11-16T08:42:07.944Z,96674.92
2022-11-16T08:44:35.935Z,96666.62
2022-11-16T08:47:05.462Z,96666.30
2022-11-16T08:49:38.025Z,96676.98
2022-11-16T08:52:05.939Z,96674.53
2022-11-16T08:54:34.022Z,96664.23
2022-11-16T08:57:01.756Z,96673.57
2022-11-16T08:59:30.383Z,96676.27
2022-11-16T09:02:00.116Z,96668.91
2022-11-16T09:04:31.503Z,96668.67
2022-11-16T09:06:57.720Z,96675.61
2022-11-16T09:09:25.821Z,96670.16
2022-11-16T09:11:55.130Z,96673.45
2022-11-16T09:14:22.795Z,96678.21
2022-11-16T09:16:50.480Z,96670.54
2022-11-16T09:19:18.414Z,96664.44
2022-11-16T09:21:45.881Z,96651.70
2022-11-16T09:24:13.389Z,96652.08
2022-11-16T09:26:41.127Z,96648.61
2022-11-16T09:29:14.729Z,96639.86
2022-11-16T09:31:42.177Z,96635.42
2022-11-16T09:34:09.909Z,96622.38
2022-11-16T09:36:37.346Z,96613.17
2022-11-16T09:42:07.878Z,96613.55
2022-11-16T09:44:55.720Z,96609.97
2022-11-16T09:47:58.967Z,96604.17
2022-11-16T09:50:44.055Z,96602.11
2022-11-16T09:53:35.451Z,96594.07
2022-11-16T09:56:08.561Z,96600.53
2022-11-16T09:58:44.550Z,96599.00
2022-11-16T10:01:44.241Z,96600.59
2022-11-16T10:04:23.420Z,96598.12
2022-11-16T10:07:16.900Z,96599.14
2022-11-16T10:09:46.307Z,96595.58
2022-11-16T10:12:25.156Z,96600.86
2022-11-16T10:15:16.473Z,96591.27
2022-11-16T10:18:04.352Z,96597.58
2022-11-16T10:20:51.914Z,96594.61
2022-11-16T10:23:53.722Z,96583.77
2022-11-16T10:26:51.223Z,96581.32
2022-11-16T10:29:42.672Z,96586.71
2022-11-16T10:32:28.409Z,96576.78
2022-11-16T10:35:13.276Z,96572.09
2022-11-16T10:37:50.372Z,96573.02
2022-11-16T10:40:29.109Z,96567.42
2022-11-16T10:43:17.422Z,96561.86
2022-11-16T10:45:59.744Z,96562.86
2022-11-16T10:48:59.335Z,96563.65
2022-11-16T10:51:27.123Z,96559.16
2022-11-16T10:53:55.571Z,96555.34
2022-11-16T10:56:34.799Z,96546.04
2022-11-16T10:59:09.267Z,96546.73
2022-11-16T11:01:40.933Z,96555.18
2022-11-16T11:04:30.791Z,96549.53
2022-11-16T11:07:23.912Z,96540.35
2022-11-16T11:09:55.376Z,96542.14
2022-11-16T11:12:37.472Z,96542.35
2022-11-16T11:15:25.843Z,96547.52
2022-11-16T11:18:16.964Z,96535.95
2022-11-16T11:20:52.825Z,96536.05
2022-11-16T11:23:24.715Z,96527.78
2022-11-16T11:25:59.090Z,96526.53
2022-11-16T11:28:38.732Z,96525.61
2022-11-16T11:31:24.964Z,96517.44
2022-11-16T11:33:59.520Z,96509.83
2022-11-16T11:36:35.581Z,96512.32
2022-11-16T11:39:18.067Z,96516.75
2022-11-16T11:42:02.385Z,96519.38
2022-11-16T11:44:58.390Z,96515.37
2022-11-16T11:48:00.264Z,96518.51
2022-11-16T11:50:51.821Z,96514.11
2022-11-16T11:53:51.802Z,96511.86
2022-11-16T11:56:19.675Z,96509.03
2022-11-16T11:58:48.946Z,96506.11
2022-11-16T12:01:43.448Z,96490.15
2022-11-16T12:04:59.387Z,96495.33
2022-11-16T12:07:38.474Z,96497.61
2022-11-16T12:10:41.770Z,96501.34
2022-11-16T12:13:23.944Z,96504.81
2022-11-16T12:16:11.464Z,96495.16
2022-11-16T12:19:18.170Z,96488.97
2022-11-16T12:21:57.210Z,96492.23
2022-11-16T12:24:48.351Z,96484.02
2022-11-16T12:27:30.340Z,96489.06
2022-11-16T12:30:17.404Z,96482.33
2022-11-16T12:33:22.970Z,96479.74
2022-11-16T12:36:16.719Z,96478.98
2022-11-16T12:39:12.767Z,96473.01
2022-11-16T12:41:54.730Z,96471.55
2022-11-16T12:44:47.336Z,96467.30
2022-11-16T12:47:43.400Z,96464.14
2022-11-16T12:51:06.525Z,96463.69
2022-11-16T12:54:10.376Z,96453.09
2022-11-16T12:57:10.455Z,96463.45
2022-11-16T13:00:01.432Z,96463.09
2022-11-16T13:02:58.245Z,96460.75
2022-11-16T13:05:31.214Z,96467.03
2022-11-16T13:08:07.369Z,96467.49
2022-11-16T13:10:41.191Z,96460.30
2022-11-16T13:15:48.055Z,96458.28
2022-11-16T13:18:19.580Z,96455.25
2022-11-16T13:21:04.447Z,96453.33
2022-11-16T13:23:52.536Z,96448.50
2022-11-16T13:26:28.553Z,96444.80
2022-11-16T13:29:13.633Z,96446.15
2022-11-16T13:32:13.939Z,96448.06
2022-11-16T13:34:42.063Z,96448.38
2022-11-16T13:37:41.206Z,96443.90
2022-11-16T13:43:12.806Z,96435.12
2022-11-16T13:45:57.612Z,96435.12
2022-11-16T13:48:38.098Z,96429.25
2022-11-16T13:51:11.103Z,96426.69
2022-11-16T13:54:43.347Z,96426.80
2022-11-16T13:56:28.345Z,96422.41
2022-11-16T13:58:54.697Z,96410.80
2022-11-16T14:01:23.415Z,96406.55
2022-11-16T14:03:52.626Z,96402.05
2022-11-16T14:06:25.818Z,96395.62
2022-11-16T14:08:58.941Z,96401.78
2022-11-16T14:11:36.945Z,96406.62
2022-11-16T14:14:10.634Z,96402.67
2022-11-16T14:16:50.076Z,96406.27
2022-11-16T14:19:49.352Z,96404.24
2022-11-16T14:22:39.236Z,96405.34
2022-11-16T14:25:14.902Z,96402.46
2022-11-16T14:28:03.283Z,96405.38
2022-11-16T14:30:35.649Z,96408.45
2022-11-16T14:33:03.444Z,96404.28
2022-11-16T14:35:38.854Z,96412.40
2022-11-16T14:38:27.595Z,96412.39
2022-11-16T14:40:59.668Z,96401.61
2022-11-16T14:43:43.281Z,96393.05
2022-11-16T14:46:27.995Z,96388.78
2022-11-16T14:48:58.279Z,96393.40
2022-11-16T14:51:35.679Z,96390.23
2022-11-16T14:54:23.355Z,96386.89
2022-11-16T14:57:04.500Z,96392.38
2022-11-16T14:59:32.916Z,96389.00
2022-11-16T15:02:06.273Z,96376.74
2022-11-16T15:04:33.991Z,96375.74
2022-11-16T15:07:03.975Z,96377.88
2022-11-16T15:09:38.775Z,96385.41
2022-11-16T15:12:34.831Z,96388.32
2022-11-16T15:15:16.490Z,96386.88
2022-11-16T15:17:48.781Z,96382.94
2022-11-16T15:20:23.356Z,96385.53
2022-11-16T15:22:57.137Z,96385.41
2022-11-16T15:25:54.287Z,96382.72
2022-11-16T15:28:28.548Z,96374.16
2022-11-16T15:31:03.952Z,96380.22
2022-11-16T15:33:40.099Z,96381.34
2022-11-16T15:36:31.517Z,96382.48
2022-11-16T15:39:02.388Z,96375.84
2022-11-16T15:41:30.095Z,96379.55
2022-11-16T15:44:16.361Z,96387.53
2022-11-16T15:46:33.611Z,96380.36
2022-11-16T15:49:01.964Z,96379.00
2022-11-16T15:51:31.172Z,96377.44
2022-11-16T15:54:27.963Z,96374.84
2022-11-16T15:57:00.611Z,96370.68
2022-11-16T15:59:32.209Z,96375.96
2022-11-16T16:01:59.804Z,96374.84
2022-11-16T16:04:28.538Z,96377.64
2022-11-16T16:06:59.149Z,96363.14
2022-11-16T16:09:40.004Z,96367.63
2022-11-16T16:12:26.439Z,96358.39
2022-11-16T16:14:59.664Z,96356.82
2022-11-16T16:17:30.826Z,96348.05
2022-11-16T16:20:01.661Z,96352.76
2022-11-16T16:22:38.616Z,96353.89
2022-11-16T16:25:25.609Z,96353.32
2022-11-16T16:27:53.049Z,96356.48
2022-11-16T16:30:21.185Z,96355.13
2022-11-16T16:32:50.976Z,96351.91
2022-11-16T16:35:24.532Z,96357.30
2022-11-16T16:37:58.563Z,96353.69
2022-11-16T16:40:29.060Z,96346.74
2022-11-16T16:42:57.364Z,96350.09
2022-11-16T16:45:39.389Z,96348.74
2022-11-16T16:48:12.084Z,96343.81
2022-11-16T16:50:40.451Z,96348.42
2022-11-16T16:53:12.253Z,96337.30
2022-11-16T16:55:40.853Z,96330.09
2022-11-16T16:58:11.908Z,96324.48
2022-11-16T17:00:40.671Z,96325.36
2022-11-16T17:03:08.307Z,96324.27
2022-11-16T17:05:36.783Z,96320.53
2022-11-16T17:08:04.657Z,96319.75
2022-11-16T17:10:32.127Z,96318.19
2022-11-16T17:13:02.749Z,96309.20
2022-11-16T17:15:30.412Z,96307.38
2022-11-16T17:17:59.514Z,96303.69
2022-11-16T17:20:27.780Z,96308.97
2022-11-16T17:22:55.597Z,96296.15
2022-11-16T17:25:23.250Z,96301.96
2022-11-16T17:27:51.593Z,96306.25
2022-11-16T17:30:19.206Z,96306.48
2022-11-16T17:32:46.655Z,96299.19
2022-11-16T17:35:14.263Z,96290.52
2022-11-16T17:37:41.971Z,96288.95
2022-11-16T17:40:11.021Z,96293.20
2022-11-16T17:42:38.731Z,96298.95
2022-11-16T17:45:07.442Z,96293.20
2022-11-16T17:47:35.093Z,96293.42
2022-11-16T17:50:03.781Z,96295.91
2022-11-16T17:52:31.362Z,96292.98
2022-11-16T17:54:58.752Z,96295.47
2022-11-16T17:57:26.296Z,96295.80
2022-11-16T17:59:53.783Z,96292.98
2022-11-16T18:02:21.268Z,96293.89
2022-11-16T18:04:51.271Z,96282.98
2022-11-16T18:07:18.361Z,96277.70
2022-11-16T18:09:46.057Z,96275.34
2022-11-16T18:12:13.466Z,96276.80
2022-11-16T18:14:42.458Z,96269.62
2022-11-16T18:17:09.937Z,96273.90
2022-11-16T18:19:37.422Z,96272.75
2022-11-16T18:22:04.882Z,96270.06
2022-11-16T18:24:32.816Z,96269.39
2022-11-16T18:27:00.485Z,96269.39
2022-11-16T18:29:28.097Z,96270.73
2022-11-16T18:31:56.298Z,96268.70
2022-11-16T18:34:23.824Z,96266.45
2022-11-16T18:36:51.620Z,96277.37
2022-11-16T18:39:18.963Z,96273.20
2022-11-16T18:41:54.762Z,96278.38
2022-11-16T18:44:19.971Z,96268.48
2022-11-16T18:46:47.414Z,96269.82
2022-11-16T18:49:15.357Z,96266.69
2022-11-16T18:51:42.717Z,96264.88
2022-11-16T18:54:10.212Z,96253.88
2022-11-16T18:56:37.919Z,96253.22
2022-11-16T18:59:05.377Z,96262.87
2022-11-16T19:01:33.122Z,96257.03
2022-11-16T19:04:01.188Z,96259.72
2022-11-16T19:06:33.545Z,96266.13
2022-11-16T19:09:03.024Z,96257.14
2022-11-16T19:11:30.639Z,96257.94
2022-11-16T19:14:00.261Z,96253.20
2022-11-16T19:16:28.157Z,96253.89
2022-11-16T19:18:56.115Z,96250.95
2022-11-16T19:21:24.068Z,96239.28
2022-11-16T19:23:54.963Z,96243.33
2022-11-16T19:26:26.279Z,96240.52
2022-11-16T19:28:54.420Z,96242.88
2022-11-16T19:31:28.593Z,96248.27
2022-11-16T19:34:02.296Z,96245.34
2022-11-16T19:36:30.426Z,96237.48
2022-11-16T19:38:58.360Z,96240.53
2022-11-16T19:41:27.007Z,96233.11
2022-11-16T19:43:59.255Z,96234.56
2022-11-16T19:46:29.615Z,96237.48
2022-11-16T19:48:58.539Z,96235.02
2022-11-16T19:51:32.238Z,96241.64
2022-11-16T19:54:00.393Z,96234.78
2022-11-16T19:56:28.532Z,96244.22
2022-11-16T19:58:56.804Z,96228.18
2022-11-16T20:01:28.299Z,96228.50
2022-11-16T20:03:59.186Z,96223.11
2022-11-16T20:06:35.910Z,96222.42
2022-11-16T20:09:08.348Z,96208.52
2022-11-16T20:11:38.231Z,96196.39
2022-11-16T20:14:09.376Z,96197.95
2022-11-16T20:16:40.133Z,96199.77
2022-11-16T20:19:09.567Z,96198.86
2022-11-16T20:21:42.872Z,96194.25
2022-11-16T20:24:14.845Z,96194.83
2022-11-16T20:26:46.173Z,96192.47
2022-11-16T20:29:16.206Z,96193.36
2022-11-16T20:31:45.613Z,96178.20
2022-11-16T20:34:16.084Z,96172.11
2022-11-16T20:36:46.196Z,96172.55
2022-11-16T20:39:17.808Z,96175.47
2022-11-16T20:41:46.159Z,96173.34
2022-11-16T20:44:20.431Z,96170.29
2022-11-16T20:46:51.215Z,96172.31
2022-11-16T20:49:18.942Z,96174.01
2022-11-16T20:51:47.856Z,96161.98
2022-11-16T20:54:15.584Z,96157.72
2022-11-16T20:56:44.058Z,96154.91
2022-11-16T20:59:11.723Z,96149.09
2022-11-16T21:01:41.192Z,96145.59
2022-11-16T21:04:10.348Z,96138.20
2022-11-16T21:06:37.662Z,96144.27
2022-11-16T21:09:05.256Z,96143.94
2022-11-16T21:11:35.415Z,96144.61
2022-11-16T21:14:18.049Z,96141.80
2022-11-16T21:16:45.545Z,96141.37
2022-11-16T21:19:13.225Z,96140.91
2022-11-16T21:21:41.437Z,96148.09
2022-11-16T21:24:09.628Z,96147.42
2022-11-16T21:26:37.676Z,96150.47
2022-11-16T21:29:06.110Z,96151.91
2022-11-16T21:31:35.936Z,96157.98
2022-11-16T21:34:05.363Z,96156.19
2022-11-16T21:36:33.667Z,96145.73
2022-11-16T21:39:01.488Z,96146.31
2022-11-16T21:41:29.060Z,96143.16
2022-11-16T21:43:56.794Z,96144.27
2022-11-16T21:46:26.986Z,96143.14
2022-11-16T21:48:55.747Z,96140.87
2022-11-16T21:51:25.690Z,96139.38
2022-11-16T21:53:53.676Z,96129.27
2022-11-16T21:56:24.253Z,96133.17
2022-11-16T21:58:53.591Z,96129.62
2022-11-16T22:01:22.845Z,96126.64
2022-11-16T22:03:52.956Z,96127.91
2022-11-16T22:06:39.216Z,96131.75
2022-11-16T22:09:06.706Z,96133.17
2022-11-16T22:11:34.228Z,96125.76
2022-11-16T22:14:01.699Z,96122.06
2022-11-16T22:16:30.136Z,96119.72
2022-11-16T22:18:57.871Z,96118.70
2022-11-16T22:21:25.425Z,96117.81
2022-11-16T22:23:53.803Z,96115.44
2022-11-16T22:26:21.215Z,96111.84
2022-11-16T22:28:48.925Z,96108.27
2022-11-16T22:31:16.611Z,96098.97
2022-11-16T22:33:44.039Z,96101.34
2022-11-16T22:36:12.838Z,96097.97
2022-11-16T22:38:40.518Z,96092.83
2022-11-16T22:41:08.846Z,96088.33
2022-11-16T22:43:37.084Z,96088.89
2022-11-16T22:46:06.205Z,96087.19
2022-11-16T22:48:37.260Z,96083.61
2022-11-16T22:51:09.384Z,96078.64
2022-11-16T22:53:37.196Z,96083.15
2022-11-16T22:56:09.906Z,96078.18
2022-11-16T22:58:38.621Z,96079.31
2022-11-16T23:01:08.576Z,96077.61
2022-11-16T23:03:37.558Z,96073.88
2022-11-16T23:06:06.685Z,96065.32
2022-11-16T23:08:35.954Z,96065.09
2022-11-16T23:11:37.833Z,96058.24
2022-11-16T23:14:27.877Z,96056.75
2022-11-16T23:16:55.856Z,96059.45
2022-11-16T23:19:42.047Z,96044.40
2022-11-16T23:22:34.814Z,96041.70
2022-11-16T23:25:22.157Z,96040.56
2022-11-16T23:27:58.207Z,96043.52
2022-11-16T23:30:26.040Z,96051.05
2022-11-16T23:32:53.997Z,96041.27
2022-11-16T23:35:22.426Z,96036.59
2022-11-16T23:37:59.041Z,96031.98
2022-11-16T23:40:37.063Z,96033.59
2022-11-16T23:43:23.975Z,96039.23
2022-11-16T23:45:51.547Z,96037.21
2022-11-16T23:48:19.232Z,96033.28
2022-11-16T23:50:47.642Z,96029.94
2022-11-16T23:53:15.044Z,96025.44
2022-11-16T23:55:42.816Z,96022.31
2022-11-16T23:58:13.877Z,96022.31
